Aérodrome :
LOGIN :

S'inscrire | Disclaimer

   EN    FR    IT 

 










Légende :    VFR   VFR Marginal   IFR   IFR Intensif   IFR Très Intensif
Visi : 
Plafond : 
>= 8 km
>= 3000ft
5 à 8 km
1000 à 3000 ft
1500m à 5 km
500 à 1000 ft
800 à 1500m
200 à 500 ft
< 800m
< 200 ft
Symboles :   Orages  Brouillard  Fortes neiges  Fortes précipitations  Vent > 20 kt
SIGMETs :   Divers  Orages  Givrage  Turbulence  Onde Orograph.  Cendres Volcan.






- Altitude de l'aérodrome : 1197 ft
- Code IATA : SPM


ETAD - Spangdahlem Ab

DERNIER METAR :
  • 041041Z 00000KT 9999 SCT065 21/10 A3004 RMK AO2A SLP154 $

METARs EXPIRÉS :
  • 041026Z 00000KT 9999 FEW045 BKN065 21/10 A3004 RMK AO2A SLP154 $
  • 041011Z 00000KT 9999 SCT033 BKN045 BKN070 19/09 A3004 RMK AO2A SLP156 $
  • 040956Z 34003KT 9999 BKN032 18/10 A3004 RMK AO2A SLP157 T01820095 $
  • 040916Z 00000KT 9999 BKN031 18/10 A3004 RMK AO2A SLP157 $
  • 040907Z 10005KT 9999 BKN028 18/11 A3004 RMK AO2A SLP157 $
  • 040856Z 31007KT 9999 SCT028 21/11 A3004 RMK AO2A SLP154 T02090110 52010 $
  • 040841Z 32007KT 9999 SCT026 BKN060 18/10 A3004 RMK AO2A SLP157 $
  • 040826Z 31005KT 9999 SCT027 BKN070 17/11 A3004 RMK AO2A SLP157 $
  • 040811Z AUTO 27007KT 9999 SCT023 SCT065 17/10 A3003 RMK AO2 SLP154 $
  • 040756Z AUTO 32006KT 9999 BKN022 18/11 A3003 RMK AO2 BKN V SCT SLP152 T01770106 $

TAF TAF ETAD
Valide du 04 à 04h jusqu'au 05 à 10h UTC


040400Z 0404/0510 VRB03KT 9999 BKN100 QNH2996INS
BECMG 0409/0410 30008KT 9999 SCT050 BKN100 QNH3000INS
BECMG 0417/0418 VRB03KT 9999 FEW060 BKN180 QNH3002INS TX23/0415Z TN10/0504Z



MET'MAP, la Météo Aéronautique d'un coup d'oeil ! - Copyright ORBIFLY Décembre 2007 - Disclaimer

ORBIFLY MET'MAP TEAM :

Programmation & Développement : Alexandra Zaïnal
Sur une idée originale de : Baudouin d'Aumeries
Assistance à la programmation : Marc-Olivier Méhu
Soutien technique & logistique : Manuel Goepfert

Contact : metmap@orbifly.com




SOURCES & CREDITS :

   NOAA